createdAt,value
2023-01-13T00:01:52.943Z,7.50
2023-01-13T00:04:21.270Z,9.13
2023-01-13T00:06:50.136Z,7.70
2023-01-13T00:09:18.513Z,7.13
2023-01-13T00:11:47.991Z,7.43
2023-01-13T00:14:16.889Z,9.93
2023-01-13T00:16:45.580Z,9.88
2023-01-13T00:19:13.942Z,7.03
2023-01-13T00:21:42.628Z,9.02
2023-01-13T00:24:11.237Z,8.43
2023-01-13T00:26:39.843Z,10.25
2023-01-13T00:29:08.293Z,8.65
2023-01-13T00:31:37.557Z,10.25
2023-01-13T00:34:05.933Z,9.48
2023-01-13T00:36:34.635Z,9.07
2023-01-13T00:39:03.560Z,10.90
2023-01-13T00:41:52.319Z,8.48
2023-01-13T00:44:20.805Z,10.82
2023-01-13T00:46:49.483Z,12.35
2023-01-13T00:49:18.436Z,10.30
2023-01-13T00:51:47.159Z,9.30
2023-01-13T00:54:15.442Z,9.02
2023-01-13T00:56:44.034Z,8.38
2023-01-13T00:59:13.921Z,9.13
2023-01-13T01:01:43.164Z,11.82
2023-01-13T01:04:12.270Z,9.95
2023-01-13T01:06:41.022Z,9.82
2023-01-13T01:09:15.977Z,10.82
2023-01-13T01:11:44.947Z,11.23
2023-01-13T01:14:14.544Z,11.52
2023-01-13T01:16:43.259Z,10.27
2023-01-13T01:19:11.828Z,8.68
2023-01-13T01:21:40.698Z,8.98
2023-01-13T01:24:09.953Z,10.32
2023-01-13T01:26:42.079Z,12.00
2023-01-13T01:29:13.985Z,8.38
2023-01-13T01:31:43.726Z,9.55
2023-01-13T01:34:12.119Z,10.02
2023-01-13T01:36:40.545Z,10.15
2023-01-13T01:39:10.445Z,8.10
2023-01-13T01:41:38.816Z,7.80
2023-01-13T01:44:45.265Z,7.93
2023-01-13T01:47:18.356Z,5.60
2023-01-13T01:49:49.326Z,6.95
2023-01-13T01:52:26.887Z,8.85
2023-01-13T01:55:20.046Z,7.32
2023-01-13T01:57:57.375Z,9.63
2023-01-13T02:00:29.232Z,6.93
2023-01-13T02:02:59.444Z,9.52
2023-01-13T02:05:28.296Z,7.80
2023-01-13T02:07:59.244Z,7.97
2023-01-13T02:10:30.365Z,7.22
2023-01-13T02:13:02.621Z,8.02
2023-01-13T02:15:40.961Z,9.68
2023-01-13T02:18:22.963Z,8.57
2023-01-13T02:21:21.477Z,6.32
2023-01-13T02:24:40.220Z,7.03
2023-01-13T02:27:46.657Z,7.53
2023-01-13T02:30:59.377Z,5.93
2023-01-13T02:36:20.138Z,6.50
2023-01-13T02:38:57.874Z,9.25
2023-01-13T02:42:13.018Z,5.60
2023-01-13T02:44:48.007Z,6.90
2023-01-13T02:47:26.240Z,8.10
2023-01-13T02:50:03.236Z,6.07
2023-01-13T02:52:43.155Z,5.72
2023-01-13T02:55:17.098Z,8.43
2023-01-13T02:57:46.730Z,6.15
2023-01-13T03:00:17.217Z,7.75
2023-01-13T03:02:45.789Z,7.32
2023-01-13T03:05:16.927Z,8.18
2023-01-13T03:08:14.575Z,6.85
2023-01-13T03:11:07.421Z,7.45
2023-01-13T03:13:53.086Z,8.15
2023-01-13T03:16:59.649Z,7.13
2023-01-13T03:20:20.294Z,8.18
2023-01-13T03:23:06.768Z,7.18
2023-01-13T03:25:44.764Z,6.78
2023-01-13T03:28:29.071Z,9.43
2023-01-13T03:31:03.752Z,6.28
2023-01-13T03:33:46.075Z,7.15
2023-01-13T03:36:17.016Z,8.88
2023-01-13T03:39:11.381Z,8.20
2023-01-13T03:41:57.431Z,6.70
2023-01-13T03:44:46.613Z,7.70
2023-01-13T03:47:22.345Z,8.88
2023-01-13T03:50:05.522Z,7.88
2023-01-13T03:52:41.853Z,7.53
2023-01-13T03:55:22.780Z,5.88
2023-01-13T03:58:06.941Z,8.38
2023-01-13T04:00:48.541Z,5.40
2023-01-13T04:03:48.857Z,5.45
2023-01-13T04:06:40.942Z,8.02
2023-01-13T04:09:20.328Z,5.78
2023-01-13T04:12:07.974Z,5.30
2023-01-13T04:14:36.685Z,6.05
2023-01-13T04:17:05.703Z,5.90
2023-01-13T04:19:34.330Z,4.90
2023-01-13T04:22:03.063Z,4.60
2023-01-13T04:24:37.351Z,6.63
2023-01-13T04:27:06.467Z,5.85
2023-01-13T04:29:34.787Z,6.65
2023-01-13T04:32:03.675Z,7.95
2023-01-13T04:34:35.250Z,6.25
2023-01-13T04:37:07.967Z,5.13
2023-01-13T04:39:42.048Z,5.30
2023-01-13T04:42:11.756Z,5.75
2023-01-13T04:44:42.874Z,6.53
2023-01-13T04:47:15.168Z,6.20
2023-01-13T04:49:47.226Z,6.65
2023-01-13T04:52:17.064Z,3.97
2023-01-13T04:54:46.746Z,5.10
2023-01-13T04:57:21.429Z,4.50
2023-01-13T04:59:52.449Z,5.95
2023-01-13T05:02:24.570Z,5.57
2023-01-13T05:04:55.405Z,8.55
2023-01-13T05:07:30.082Z,4.30
2023-01-13T05:10:01.329Z,5.35
2023-01-13T05:12:51.630Z,3.13
2023-01-13T05:15:41.052Z,5.82
2023-01-13T05:18:17.239Z,5.18
2023-01-13T05:20:46.419Z,6.07
2023-01-13T05:23:33.553Z,3.75
2023-01-13T05:26:01.964Z,4.40
2023-01-13T05:28:34.636Z,4.47
2023-01-13T05:31:02.926Z,3.35
2023-01-13T05:33:31.527Z,4.15
2023-01-13T05:36:02.941Z,3.42
2023-01-13T05:38:31.673Z,6.18
2023-01-13T05:41:18.945Z,3.97
2023-01-13T05:43:56.286Z,4.30
2023-01-13T05:46:45.398Z,4.30
2023-01-13T05:49:13.943Z,3.85
2023-01-13T05:51:45.121Z,6.05
2023-01-13T05:54:13.762Z,4.88
2023-01-13T05:56:42.074Z,3.63
2023-01-13T05:59:10.678Z,5.32
2023-01-13T06:01:38.938Z,3.85
2023-01-13T06:04:07.528Z,4.85
2023-01-13T06:06:39.257Z,2.80
2023-01-13T06:09:08.009Z,4.68
2023-01-13T06:11:36.271Z,4.03
2023-01-13T06:14:04.854Z,4.88
2023-01-13T06:16:33.147Z,2.05
2023-01-13T06:19:01.723Z,3.67
2023-01-13T06:21:31.934Z,3.63
2023-01-13T06:24:02.659Z,4.00
2023-01-13T06:26:38.125Z,3.97
2023-01-13T06:29:08.367Z,5.75
2023-01-13T06:31:39.193Z,3.72
2023-01-13T06:34:34.682Z,5.67
2023-01-13T06:37:05.325Z,4.35
2023-01-13T06:39:35.996Z,4.68
2023-01-13T06:42:23.448Z,4.68
2023-01-13T06:44:52.073Z,4.80
2023-01-13T06:47:22.512Z,5.35
2023-01-13T06:49:51.109Z,5.53
2023-01-13T06:52:22.303Z,4.30
2023-01-13T06:54:53.969Z,5.32
2023-01-13T06:57:22.178Z,4.60
2023-01-13T06:59:51.545Z,4.97
2023-01-13T07:02:22.854Z,6.15
2023-01-13T07:04:57.491Z,5.13
2023-01-13T07:07:25.770Z,6.45
2023-01-13T07:09:57.300Z,5.07
2023-01-13T07:12:28.044Z,4.82
2023-01-13T07:15:15.117Z,4.63
2023-01-13T07:17:44.519Z,4.40
2023-01-13T07:20:14.965Z,4.47
2023-01-13T07:22:54.024Z,7.18
2023-01-13T07:25:29.702Z,6.38
2023-01-13T07:27:58.483Z,3.70
2023-01-13T07:30:32.210Z,4.55
2023-01-13T07:33:04.583Z,5.35
2023-01-13T07:35:33.135Z,4.93
2023-01-13T07:38:01.422Z,6.65
2023-01-13T07:40:30.694Z,6.45
2023-01-13T07:43:17.323Z,4.63
2023-01-13T07:45:48.686Z,4.30
2023-01-13T07:48:16.962Z,5.82
2023-01-13T07:50:45.629Z,6.65
2023-01-13T07:53:13.830Z,5.85
2023-01-13T07:55:49.319Z,6.03
2023-01-13T07:58:25.034Z,5.88
2023-01-13T08:00:58.188Z,5.97
2023-01-13T08:03:28.568Z,4.47
2023-01-13T08:05:57.192Z,6.50
2023-01-13T08:08:25.372Z,5.43
2023-01-13T08:10:53.947Z,6.25
2023-01-13T08:13:31.793Z,5.88
2023-01-13T08:16:02.945Z,7.43
2023-01-13T08:18:32.520Z,6.63
2023-01-13T08:21:05.380Z,7.85
2023-01-13T08:23:34.285Z,6.60
2023-01-13T08:26:09.632Z,4.40
2023-01-13T08:28:40.732Z,8.68
2023-01-13T08:31:14.726Z,5.22
2023-01-13T08:33:43.203Z,6.53
2023-01-13T08:36:14.042Z,5.20
2023-01-13T08:38:42.900Z,6.28
2023-01-13T08:41:13.525Z,4.35
2023-01-13T08:43:45.282Z,5.88
2023-01-13T08:46:16.105Z,7.45
2023-01-13T08:48:44.580Z,5.25
2023-01-13T08:51:13.407Z,6.85
2023-01-13T08:53:41.796Z,4.90
2023-01-13T08:56:13.627Z,7.15
2023-01-13T08:58:41.897Z,8.48
2023-01-13T09:01:15.374Z,4.50
2023-01-13T09:03:43.908Z,4.82
2023-01-13T09:06:13.639Z,4.50
2023-01-13T09:08:47.733Z,5.60
2023-01-13T09:11:44.804Z,5.35
2023-01-13T09:14:16.727Z,5.35
2023-01-13T09:16:45.367Z,4.70
2023-01-13T09:19:13.663Z,6.00
2023-01-13T09:21:42.225Z,5.22
2023-01-13T09:24:10.630Z,5.57
2023-01-13T09:26:39.219Z,8.40
2023-01-13T09:29:07.513Z,5.90
2023-01-13T09:31:36.455Z,6.88
2023-01-13T09:34:24.974Z,5.22
2023-01-13T09:36:54.405Z,6.88
2023-01-13T09:39:22.735Z,6.95
2023-01-13T09:42:31.259Z,5.68
2023-01-13T09:45:07.449Z,8.73
2023-01-13T09:47:41.104Z,7.30
2023-01-13T09:50:15.453Z,7.30
2023-01-13T09:52:49.960Z,5.65
2023-01-13T09:55:24.888Z,6.20
2023-01-13T09:57:53.479Z,6.65
2023-01-13T10:00:29.707Z,7.47
2023-01-13T10:03:25.308Z,8.38
2023-01-13T10:06:00.247Z,5.30
2023-01-13T10:08:50.330Z,4.88
2023-01-13T10:11:39.913Z,5.53
2023-01-13T10:14:34.976Z,4.22
2023-01-13T10:17:03.199Z,5.55
2023-01-13T10:19:41.384Z,7.90
2023-01-13T10:22:24.806Z,5.10
2023-01-13T10:25:25.599Z,4.47
2023-01-13T10:27:56.520Z,3.63
2023-01-13T10:30:31.621Z,3.88
2023-01-13T10:33:27.838Z,4.47
2023-01-13T10:36:23.213Z,4.18
2023-01-13T10:38:52.728Z,4.10
2023-01-13T10:41:28.277Z,6.30
2023-01-13T10:44:09.510Z,5.55
2023-01-13T10:46:52.288Z,4.55
2023-01-13T10:49:36.651Z,5.97
2023-01-13T10:52:26.112Z,4.00
2023-01-13T10:54:55.568Z,4.43
2023-01-13T10:57:28.716Z,4.75
2023-01-13T10:59:57.060Z,4.93
2023-01-13T11:02:29.664Z,4.95
2023-01-13T11:05:00.623Z,5.47
2023-01-13T11:07:37.723Z,4.57
2023-01-13T11:10:27.637Z,4.72
2023-01-13T11:13:07.192Z,4.53
2023-01-13T11:15:44.780Z,4.70
2023-01-13T11:18:31.625Z,7.22
2023-01-13T11:21:04.483Z,4.13
2023-01-13T11:23:39.840Z,3.85
2023-01-13T11:26:19.676Z,3.65
2023-01-13T11:29:11.878Z,5.10
2023-01-13T11:31:47.728Z,7.45
2023-01-13T11:34:32.701Z,5.25
2023-01-13T11:37:03.485Z,4.68
2023-01-13T11:39:44.190Z,5.15
2023-01-13T11:42:40.455Z,4.95
2023-01-13T11:45:22.206Z,5.70
2023-01-13T11:47:54.731Z,3.75
2023-01-13T11:50:51.215Z,7.15
2023-01-13T11:54:01.232Z,4.88
2023-01-13T11:56:57.124Z,3.90
2023-01-13T11:59:43.582Z,5.72
2023-01-13T12:02:46.283Z,6.30
2023-01-13T12:08:11.123Z,3.95
2023-01-13T12:10:49.379Z,4.87
2023-01-13T12:13:40.428Z,4.93
2023-01-13T12:16:16.036Z,6.22
2023-01-13T12:19:24.383Z,4.57
2023-01-13T12:22:11.011Z,6.53
2023-01-13T12:25:00.359Z,4.32
2023-01-13T12:27:47.453Z,5.45
2023-01-13T12:30:45.912Z,3.90
2023-01-13T12:33:33.798Z,5.20
2023-01-13T12:36:06.848Z,7.13
2023-01-13T12:38:44.293Z,4.18
2023-01-13T12:41:24.758Z,6.53
2023-01-13T12:44:12.469Z,4.78
2023-01-13T12:46:56.312Z,4.38
2023-01-13T12:49:30.590Z,6.70
2023-01-13T12:52:15.173Z,5.38
2023-01-13T12:54:43.628Z,8.82
2023-01-13T12:57:22.102Z,9.13
2023-01-13T12:59:59.462Z,9.38
2023-01-13T13:02:43.479Z,5.07
2023-01-13T13:05:15.399Z,9.05
2023-01-13T13:10:30.208Z,7.47
2023-01-13T13:13:18.270Z,9.25
2023-01-13T13:15:49.477Z,7.78
2023-01-13T13:18:18.118Z,6.67
2023-01-13T13:21:07.194Z,8.65
2023-01-13T13:23:57.013Z,7.72
2023-01-13T13:26:31.858Z,7.25
2023-01-13T13:29:06.909Z,8.80
2023-01-13T13:31:59.409Z,7.10
2023-01-13T13:34:43.422Z,6.68
2023-01-13T13:37:28.587Z,7.03
2023-01-13T13:40:16.226Z,6.32
2023-01-13T13:43:14.165Z,6.70
2023-01-13T13:46:11.422Z,7.60
2023-01-13T13:48:39.767Z,6.68
2023-01-13T13:51:29.339Z,6.75
2023-01-13T13:53:59.492Z,7.88
2023-01-13T13:56:32.547Z,10.13
2023-01-13T13:59:01.060Z,7.10
2023-01-13T14:01:36.861Z,7.25
2023-01-13T14:04:30.148Z,23.05
2023-01-13T14:07:21.755Z,9.80
2023-01-13T14:09:54.380Z,6.57
2023-01-13T14:12:27.607Z,7.22
2023-01-13T14:14:57.587Z,6.82
2023-01-13T14:17:28.772Z,7.75
2023-01-13T14:20:03.055Z,5.63
2023-01-13T14:22:32.640Z,5.05
2023-01-13T14:25:02.104Z,4.13
2023-01-13T14:27:31.208Z,5.25
2023-01-13T14:30:01.044Z,3.92
2023-01-13T14:32:36.681Z,6.10
2023-01-13T14:35:08.569Z,4.47
2023-01-13T14:37:40.436Z,5.10
2023-01-13T14:40:33.754Z,4.10
2023-01-13T14:43:14.101Z,6.78
2023-01-13T14:45:55.290Z,3.47
2023-01-13T14:48:37.268Z,3.38
2023-01-13T14:51:09.890Z,7.15
2023-01-13T14:54:24.528Z,6.10
2023-01-13T14:57:51.196Z,5.60
2023-01-13T15:00:24.740Z,6.43
2023-01-13T15:03:42.081Z,5.32
2023-01-13T15:06:26.413Z,5.60
2023-01-13T15:08:55.564Z,6.60
2023-01-13T15:11:28.193Z,4.57
2023-01-13T15:14:01.771Z,4.28
2023-01-13T15:16:35.086Z,4.03
2023-01-13T15:19:04.473Z,8.57
2023-01-13T15:21:34.409Z,3.80
2023-01-13T15:24:02.998Z,4.35
2023-01-13T15:26:35.216Z,3.95
2023-01-13T15:29:05.336Z,2.13
2023-01-13T15:31:33.979Z,4.05
2023-01-13T15:34:05.284Z,6.00
2023-01-13T15:36:34.723Z,8.02
2023-01-13T15:39:04.208Z,6.80
2023-01-13T15:42:18.350Z,9.52
2023-01-13T15:45:08.659Z,6.05
2023-01-13T15:47:38.092Z,6.63
2023-01-13T15:50:59.011Z,6.40
2023-01-13T15:53:17.255Z,6.40
2023-01-13T15:55:49.753Z,4.75
2023-01-13T15:58:32.419Z,9.35
2023-01-13T16:01:14.100Z,4.90
2023-01-13T16:03:42.949Z,7.55
2023-01-13T16:06:17.368Z,7.38
2023-01-13T16:08:48.286Z,8.30
2023-01-13T16:11:23.341Z,8.15
2023-01-13T16:13:59.424Z,10.30
2023-01-13T16:16:32.591Z,7.55
2023-01-13T16:19:22.659Z,11.30
2023-01-13T16:21:53.551Z,10.43
2023-01-13T16:24:22.572Z,11.50
2023-01-13T16:26:53.169Z,15.68
2023-01-13T16:29:26.798Z,13.07
2023-01-13T16:31:59.760Z,10.45
2023-01-13T16:34:31.471Z,9.40
2023-01-13T16:37:03.681Z,10.48
2023-01-13T16:39:34.745Z,13.07
2023-01-13T16:42:19.626Z,10.65
2023-01-13T16:54:10.776Z,12.35
2023-01-13T16:56:51.244Z,10.35
2023-01-13T16:59:44.634Z,11.30
2023-01-13T17:05:47.057Z,10.10
2023-01-13T17:08:49.731Z,11.95
2023-01-13T17:11:38.739Z,10.50
2023-01-13T17:17:28.309Z,14.15
2023-01-13T17:20:01.217Z,13.88
2023-01-13T17:25:26.968Z,13.15
2023-01-13T17:27:55.566Z,12.90
2023-01-13T17:30:28.295Z,19.27
2023-01-13T17:36:55.699Z,8.73
2023-01-13T17:40:22.199Z,11.40
2023-01-13T17:43:10.403Z,8.88
2023-01-13T17:45:44.705Z,8.38
2023-01-13T17:49:47.522Z,11.57
2023-01-13T17:52:22.313Z,12.98
2023-01-13T17:55:17.319Z,10.63
2023-01-13T17:58:14.438Z,11.77
2023-01-13T18:00:51.974Z,9.88
2023-01-13T18:03:23.278Z,12.93
2023-01-13T18:05:51.780Z,9.57
2023-01-13T18:08:34.801Z,8.32
2023-01-13T18:11:12.587Z,8.55
2023-01-13T18:13:43.603Z,10.57
2023-01-13T18:16:16.403Z,10.25
2023-01-13T18:19:52.880Z,12.50
2023-01-13T18:22:41.873Z,10.85
2023-01-13T18:25:43.479Z,11.50
2023-01-13T18:28:26.958Z,8.07
2023-01-13T18:31:22.260Z,12.48
2023-01-13T18:33:57.050Z,7.10
2023-01-13T18:36:28.354Z,8.68
2023-01-13T18:39:00.537Z,9.18
2023-01-13T18:41:51.952Z,10.50
2023-01-13T18:44:20.507Z,8.27
2023-01-13T18:46:56.201Z,9.13
2023-01-13T18:53:57.051Z,10.52
2023-01-13T18:56:27.009Z,11.43
2023-01-13T18:59:20.346Z,10.88
2023-01-13T19:01:59.449Z,8.60
2023-01-13T19:08:33.650Z,11.05
2023-01-13T19:11:08.026Z,10.02
2023-01-13T19:13:37.307Z,12.18
2023-01-13T19:16:11.658Z,9.98
2023-01-13T19:18:43.568Z,10.43
2023-01-13T19:21:17.456Z,11.15
2023-01-13T19:24:27.941Z,11.68
2023-01-13T19:27:01.259Z,14.38
2023-01-13T19:29:33.145Z,11.20
2023-01-13T19:32:02.405Z,12.27
2023-01-13T19:34:43.532Z,14.52
2023-01-13T19:37:12.366Z,14.63
2023-01-13T19:39:44.283Z,13.32
2023-01-13T19:43:01.068Z,11.55
2023-01-13T19:45:42.639Z,12.57
2023-01-13T19:48:39.524Z,13.45
2023-01-13T19:51:14.420Z,17.65
2023-01-13T19:56:23.048Z,13.13
2023-01-13T19:59:31.445Z,12.98
2023-01-13T20:02:03.919Z,14.85
2023-01-13T20:05:09.338Z,13.10
2023-01-13T20:07:51.947Z,10.15
2023-01-13T20:10:22.213Z,10.18
2023-01-13T20:16:12.488Z,8.80
2023-01-13T20:18:41.241Z,9.80
2023-01-13T20:21:11.227Z,8.80
2023-01-13T20:23:41.175Z,10.18
2023-01-13T20:26:16.066Z,12.13
2023-01-13T20:28:46.152Z,10.85
2023-01-13T20:31:15.511Z,11.05
2023-01-13T20:34:11.573Z,8.32
2023-01-13T20:36:43.793Z,12.80
2023-01-13T20:39:27.747Z,9.85
2023-01-13T20:42:42.613Z,10.18
2023-01-13T20:49:15.781Z,12.60
2023-01-13T20:51:53.416Z,10.65
2023-01-13T20:54:22.860Z,11.15
2023-01-13T20:56:54.140Z,13.63
2023-01-13T20:59:31.865Z,9.40
2023-01-13T21:02:00.439Z,10.77
2023-01-13T21:04:34.532Z,8.65
2023-01-13T21:07:28.581Z,9.02
2023-01-13T21:10:07.646Z,9.57
2023-01-13T21:12:54.680Z,11.07
2023-01-13T21:15:31.100Z,9.43
2023-01-13T21:18:20.064Z,11.77
2023-01-13T21:24:38.481Z,8.23
2023-01-13T21:27:27.437Z,10.48
2023-01-13T21:29:56.521Z,8.85
2023-01-13T21:32:25.159Z,8.60
2023-01-13T21:35:00.119Z,10.23
2023-01-13T21:37:31.290Z,10.02
2023-01-13T21:40:06.038Z,9.70
2023-01-13T21:43:03.033Z,9.13
2023-01-13T21:46:03.687Z,5.30
2023-01-13T21:48:47.042Z,7.00
2023-01-13T21:51:48.006Z,8.93
2023-01-13T21:54:20.248Z,9.05
2023-01-13T21:56:51.281Z,7.03
2023-01-13T22:11:41.132Z,9.18
2023-01-13T22:14:14.142Z,6.57
2023-01-13T22:16:49.576Z,8.73
2023-01-13T22:20:13.210Z,9.80
2023-01-13T22:22:44.497Z,7.25
2023-01-13T22:25:20.382Z,8.65
2023-01-13T22:27:49.731Z,12.27
2023-01-13T22:30:22.671Z,11.55
2023-01-13T22:32:54.457Z,9.82
2023-01-13T22:35:47.394Z,7.55
2023-01-13T22:38:20.903Z,10.05
2023-01-13T22:41:04.125Z,8.18
2023-01-13T22:43:33.052Z,6.20
2023-01-13T22:46:13.023Z,8.30
2023-01-13T22:48:43.877Z,8.95
2023-01-13T22:51:15.543Z,9.55
2023-01-13T22:53:52.273Z,8.18
2023-01-13T23:01:18.389Z,7.80
2023-01-13T23:04:07.149Z,8.52
2023-01-13T23:07:01.457Z,8.50
2023-01-13T23:09:36.014Z,9.02
2023-01-13T23:12:06.055Z,11.80
2023-01-13T23:14:34.711Z,8.68
2023-01-13T23:17:03.207Z,7.15
2023-01-13T23:19:32.523Z,9.15
2023-01-13T23:22:03.529Z,8.30
2023-01-13T23:24:57.143Z,7.15
2023-01-13T23:27:25.613Z,6.53
2023-01-13T23:29:55.996Z,7.72
2023-01-13T23:32:24.505Z,7.90
2023-01-13T23:34:54.526Z,7.78
2023-01-13T23:37:26.712Z,3.92
2023-01-13T23:39:56.613Z,8.88
2023-01-13T23:42:25.018Z,7.50
2023-01-13T23:44:53.656Z,8.57
2023-01-13T23:47:21.965Z,7.70
2023-01-13T23:49:51.427Z,7.97
2023-01-13T23:52:19.830Z,5.03
2023-01-13T23:54:48.431Z,8.52
2023-01-13T23:57:16.695Z,7.55
2023-01-13T23:59:45.856Z,7.88
